Česky Dansk Deutsch English Español Suomi Français Magyar Italiano Nederlands norsk Polski Português svenska Türkçe

 

Het Weer

Guernsey Airport (Groot Britanië)

20:50, 21 augustus 2016 (GMT)

NWNNE
WE
SWSSE
Home            
Guernsey Airport Jersey Airport Alderney / Channel Island Cherbourg / Maupertus Lannion / Servel Saint-Brieuc Dinard Portland / Rnas Morlaix / Ploujean Plymouth Landivisiau Plymouth / Roborough Exeter Airport Caen Bournemouth Airport Rennes Brest Yeovilton Southampton / Weather Centre Lanveoc Poulmic La Heve Lann Bihoue Quimper

Om een weerknop op uw website of weblog te plaatsen, copieer onderstaande code en plak die in uw pagina. In het eerste vakje staat HTML-code, in het tweede vakje UBB-code.


Add to Google

Details

Wind speed:4 bf, 13 kn, 6.7 m/s, 15.0 miles/h, 24.1 km/h
Wind direction:WSW, 240°
Visibility:Greater than 10000 m, 10 km, 32800 ft, 6.2 miles
Clouds:CAVOC
Temperature:16°C, 61°F
Dew-point:15°C, 59°F
Atmospheric pressure:1025 hPa, 768.8 mmHg, 30.27 inHg, 1.012 atm
Relative humidity:93.8 %
METAR:EGJB 212050Z 24013KT CAVOK 16/15 Q1025

Snelkoppelingen

Actuele weersinformatie van de hele wereld. Voeg locaties toe met het plus (+) symbool. Deze snelkoppelingen kunnen worden toegevoegd aan Google.

Lid van de Technetium groep

website free tracking
StatCounter NetStat W3C Validator

27-10-2020 01:10:03
astro.technetium.be money.technetium.be phote.technetium.be tafeltennistafel.technetium.be www.ligfiets.net